createdAt,value
2022-11-23T00:00:17.549Z,935.6
2022-11-23T00:01:23.707Z,935.6
2022-11-23T00:02:29.784Z,935.6
2022-11-23T00:03:35.016Z,935.6
2022-11-23T00:04:41.127Z,935.6
2022-11-23T00:05:47.326Z,935.6
2022-11-23T00:06:53.487Z,935.6
2022-11-23T00:07:59.648Z,935.6
2022-11-23T00:09:05.825Z,935.6
2022-11-23T00:10:11.979Z,935.6
2022-11-23T00:11:17.298Z,935.6
2022-11-23T00:12:22.449Z,935.5
2022-11-23T00:13:28.537Z,935.5
2022-11-23T00:14:34.720Z,935.6
2022-11-23T00:15:40.888Z,935.5
2022-11-23T00:16:47.211Z,935.6
2022-11-23T00:17:53.217Z,935.6
2022-11-23T00:18:59.447Z,935.6
2022-11-23T00:20:05.720Z,935.6
2022-11-23T00:21:11.729Z,935.6
2022-11-23T00:22:18.058Z,935.6
2022-11-23T00:23:24.163Z,935.6
2022-11-23T00:24:30.440Z,935.7
2022-11-23T00:25:36.484Z,935.6
2022-11-23T00:26:41.601Z,935.6
2022-11-23T00:27:47.835Z,935.6
2022-11-23T00:28:53.936Z,935.6
2022-11-23T00:30:00.211Z,935.5
2022-11-23T00:31:06.284Z,935.5
2022-11-23T00:32:12.510Z,935.6
2022-11-23T00:33:18.687Z,935.6
2022-11-23T00:34:23.827Z,935.5
2022-11-23T00:35:29.040Z,935.6
2022-11-23T00:36:34.263Z,935.6
2022-11-23T00:37:39.440Z,935.6
2022-11-23T00:38:45.556Z,935.5
2022-11-23T00:39:51.889Z,935.5
2022-11-23T00:40:57.899Z,935.5
2022-11-23T00:42:04.264Z,935.5
2022-11-23T00:43:10.253Z,935.6
2022-11-23T00:44:16.539Z,935.6
2022-11-23T00:45:22.682Z,935.6
2022-11-23T00:46:28.783Z,935.6
2022-11-23T00:47:34.933Z,935.6
2022-11-23T00:48:41.084Z,935.6
2022-11-23T00:49:47.265Z,935.6
2022-11-23T00:50:53.490Z,935.6
2022-11-23T00:51:58.726Z,935.6
2022-11-23T00:53:04.796Z,935.6
2022-11-23T00:54:11.018Z,935.6
2022-11-23T00:55:17.132Z,935.6
2022-11-23T00:56:23.403Z,935.6
2022-11-23T00:57:29.484Z,935.6
2022-11-23T00:58:35.655Z,935.7
2022-11-23T00:59:40.837Z,935.7
2022-11-23T01:00:46.010Z,935.7
2022-11-23T01:01:51.224Z,935.7
2022-11-23T01:02:56.390Z,935.7
2022-11-23T01:04:01.610Z,935.7
2022-11-23T01:05:06.786Z,935.7
2022-11-23T01:06:12.000Z,935.7
2022-11-23T01:07:17.172Z,935.7
2022-11-23T01:08:23.415Z,935.6
2022-11-23T01:09:29.506Z,935.6
2022-11-23T01:10:35.676Z,935.6
2022-11-23T01:11:42.050Z,935.6
2022-11-23T01:12:48.085Z,935.6
2022-11-23T01:13:54.202Z,935.6
2022-11-23T01:15:00.365Z,935.6
2022-11-23T01:16:06.527Z,935.6
2022-11-23T01:17:12.776Z,935.6
2022-11-23T01:18:18.879Z,935.6
2022-11-23T01:19:25.081Z,935.6
2022-11-23T01:20:31.228Z,935.6
2022-11-23T01:21:36.496Z,935.6
2022-11-23T01:22:42.671Z,935.6
2022-11-23T01:23:48.846Z,935.6
2022-11-23T01:24:54.958Z,935.6
2022-11-23T01:26:01.068Z,935.6
2022-11-23T01:27:07.260Z,935.6
2022-11-23T01:28:13.443Z,935.6
2022-11-23T01:29:18.730Z,935.6
2022-11-23T01:30:23.913Z,935.6
2022-11-23T01:31:29.009Z,935.6
2022-11-23T01:32:34.180Z,935.6
2022-11-23T01:33:40.395Z,935.6
2022-11-23T01:34:46.615Z,935.6
2022-11-23T01:35:52.697Z,935.6
2022-11-23T01:36:59.015Z,935.6
2022-11-23T01:38:05.160Z,935.6
2022-11-23T01:39:11.257Z,935.6
2022-11-23T01:40:17.448Z,935.6
2022-11-23T01:41:23.738Z,935.6
2022-11-23T01:42:29.784Z,935.6
2022-11-23T01:43:35.894Z,935.6
2022-11-23T01:44:42.126Z,935.6
2022-11-23T01:45:48.239Z,935.6
2022-11-23T01:46:53.487Z,935.6
2022-11-23T01:47:59.588Z,935.6
2022-11-23T01:49:05.757Z,935.6
2022-11-23T01:50:12.060Z,935.6
2022-11-23T01:51:18.144Z,935.6
2022-11-23T01:52:24.410Z,935.6
2022-11-23T01:53:30.571Z,935.6
2022-11-23T01:54:35.728Z,935.6
2022-11-23T01:55:40.886Z,935.6
2022-11-23T01:56:46.011Z,935.6
2022-11-23T01:57:51.198Z,935.6
2022-11-23T01:58:57.360Z,935.6
2022-11-23T02:00:03.584Z,935.6
2022-11-23T02:01:09.764Z,935.6
2022-11-23T02:02:16.026Z,935.6
2022-11-23T02:03:22.219Z,935.6
2022-11-23T02:04:28.426Z,935.6
2022-11-23T02:05:34.395Z,935.6
2022-11-23T02:06:40.781Z,935.6
2022-11-23T02:07:46.933Z,935.6
2022-11-23T02:08:53.071Z,935.6
2022-11-23T02:09:59.207Z,935.6
2022-11-23T02:11:05.393Z,935.6
2022-11-23T02:12:10.595Z,935.6
2022-11-23T02:13:16.701Z,935.7
2022-11-23T02:14:22.919Z,935.7
2022-11-23T02:15:28.102Z,935.6
2022-11-23T02:16:34.232Z,935.6
2022-11-23T02:17:40.475Z,935.6
2022-11-23T02:18:46.567Z,935.6
2022-11-23T02:19:52.800Z,935.6
2022-11-23T02:20:58.071Z,935.7
2022-11-23T02:22:03.083Z,935.7
2022-11-23T02:23:09.194Z,935.7
2022-11-23T02:24:15.521Z,935.7
2022-11-23T02:25:21.718Z,935.7
2022-11-23T02:26:27.923Z,935.7
2022-11-23T02:27:33.954Z,935.7
2022-11-23T02:28:40.054Z,935.7
2022-11-23T02:29:46.402Z,935.7
2022-11-23T02:30:52.515Z,935.7
2022-11-23T02:31:58.669Z,935.7
2022-11-23T02:33:04.750Z,935.6
2022-11-23T02:34:10.999Z,935.6
2022-11-23T02:35:17.063Z,935.6
2022-11-23T02:36:22.268Z,935.6
2022-11-23T02:37:28.453Z,935.5
2022-11-23T02:38:34.670Z,935.6
2022-11-23T02:39:40.895Z,935.5
2022-11-23T02:40:47.075Z,935.5
2022-11-23T02:41:53.203Z,935.5
2022-11-23T02:42:59.425Z,935.5
2022-11-23T02:44:05.541Z,935.5
2022-11-23T02:46:17.915Z,935.5
2022-11-23T02:47:23.116Z,935.5
2022-11-23T02:48:28.364Z,935.5
2022-11-23T02:49:34.502Z,935.4
2022-11-23T02:50:40.629Z,935.4
2022-11-23T02:51:46.860Z,935.4
2022-11-23T02:52:52.995Z,935.5
2022-11-23T02:53:59.157Z,935.5
2022-11-23T02:55:05.318Z,935.4
2022-11-23T02:56:11.526Z,935.4
2022-11-23T02:57:17.589Z,935.4
2022-11-23T02:58:23.826Z,935.4
2022-11-23T02:59:30.019Z,935.4
2022-11-23T03:00:36.123Z,935.4
2022-11-23T03:01:42.216Z,935.4
2022-11-23T03:02:47.465Z,935.5
2022-11-23T03:03:53.628Z,935.5
2022-11-23T03:04:59.922Z,935.5
2022-11-23T03:06:05.996Z,935.4
2022-11-23T03:07:12.194Z,935.4
2022-11-23T03:08:18.314Z,935.4
2022-11-23T03:09:24.544Z,935.4
2022-11-23T03:10:30.728Z,935.4
2022-11-23T03:11:36.752Z,935.4
2022-11-23T03:12:42.951Z,935.4
2022-11-23T03:13:49.221Z,935.3
2022-11-23T03:14:55.406Z,935.3
2022-11-23T03:16:01.486Z,935.3
2022-11-23T03:17:06.607Z,935.3
2022-11-23T03:18:12.862Z,935.3
2022-11-23T03:19:19.102Z,935.3
2022-11-23T03:20:25.117Z,935.3
2022-11-23T03:21:31.408Z,935.3
2022-11-23T03:22:37.703Z,935.3
2022-11-23T03:23:43.768Z,935.3
2022-11-23T03:24:49.882Z,935.3
2022-11-23T03:25:55.983Z,935.3
2022-11-23T03:27:02.152Z,935.2
2022-11-23T03:28:08.361Z,935.2
2022-11-23T03:29:14.546Z,935.2
2022-11-23T03:30:20.650Z,935.3
2022-11-23T03:31:26.037Z,935.2
2022-11-23T03:32:32.149Z,935.2
2022-11-23T03:33:38.178Z,935.3
2022-11-23T03:34:44.551Z,935.3
2022-11-23T03:35:50.656Z,935.3
2022-11-23T03:36:56.829Z,935.2
2022-11-23T03:38:02.873Z,935.2
2022-11-23T03:39:09.090Z,935.2
2022-11-23T03:41:21.513Z,935.2
2022-11-23T03:42:27.721Z,935.2
2022-11-23T03:43:33.851Z,935.2
2022-11-23T03:44:39.952Z,935.2
2022-11-23T03:45:45.067Z,935.2
2022-11-23T03:46:51.282Z,935.2
2022-11-23T03:47:57.417Z,935.2
2022-11-23T03:49:03.669Z,935.2
2022-11-23T03:50:09.801Z,935.2
2022-11-23T03:51:15.959Z,935.2
2022-11-23T03:52:22.095Z,935.2
2022-11-23T03:53:28.281Z,935.2
2022-11-23T03:54:34.416Z,935.2
2022-11-23T03:55:40.590Z,935.2
2022-11-23T03:56:46.811Z,935.2
2022-11-23T03:57:52.941Z,935.2
2022-11-23T03:58:59.154Z,935.2
2022-11-23T04:00:04.342Z,935.2
2022-11-23T04:01:10.646Z,935.2
2022-11-23T04:02:16.730Z,935.2
2022-11-23T04:03:22.932Z,935.2
2022-11-23T04:04:28.976Z,935.2
2022-11-23T04:05:35.214Z,935.2
2022-11-23T04:06:41.392Z,935.2
2022-11-23T04:07:47.632Z,935.2
2022-11-23T04:08:53.694Z,935.1
2022-11-23T04:09:59.996Z,935.2
2022-11-23T04:11:06.129Z,935.2
2022-11-23T04:12:12.340Z,935.2
2022-11-23T04:13:18.420Z,935.1
2022-11-23T04:14:23.528Z,935.1
2022-11-23T04:15:29.689Z,935.1
2022-11-23T04:16:35.950Z,935.1
2022-11-23T04:17:42.111Z,935.1
2022-11-23T04:18:48.206Z,935
2022-11-23T04:21:00.650Z,935
2022-11-23T04:22:06.870Z,935
2022-11-23T04:23:12.876Z,935
2022-11-23T04:24:19.119Z,935
2022-11-23T04:25:25.309Z,934.9
2022-11-23T04:26:31.563Z,934.9
2022-11-23T04:27:37.603Z,934.9
2022-11-23T04:28:42.783Z,934.9
2022-11-23T04:29:49.031Z,934.9
2022-11-23T04:30:55.210Z,934.9
2022-11-23T04:32:01.337Z,934.9
2022-11-23T04:33:07.526Z,934.8
2022-11-23T04:34:16.180Z,934.8
2022-11-23T04:35:19.753Z,934.8
2022-11-23T04:36:25.981Z,934.9
2022-11-23T04:37:32.108Z,934.8
2022-11-23T04:38:38.397Z,934.9
2022-11-23T04:39:44.513Z,934.8
2022-11-23T04:40:50.686Z,934.9
2022-11-23T04:41:56.876Z,934.9
2022-11-23T04:43:01.957Z,934.9
2022-11-23T04:44:08.258Z,934.9
2022-11-23T04:45:14.335Z,934.9
2022-11-23T04:46:20.568Z,934.9
2022-11-23T04:47:26.714Z,934.9
2022-11-23T04:48:32.934Z,934.9
2022-11-23T04:49:39.041Z,934.9
2022-11-23T04:50:45.188Z,934.9
2022-11-23T04:51:51.352Z,934.9
2022-11-23T04:52:57.553Z,934.9
2022-11-23T04:54:03.696Z,934.9
2022-11-23T04:55:09.863Z,934.9
2022-11-23T04:56:16.067Z,934.9
2022-11-23T04:57:21.207Z,934.9
2022-11-23T04:58:27.414Z,934.9
2022-11-23T04:59:33.528Z,934.9
2022-11-23T05:00:39.711Z,934.9
2022-11-23T05:01:45.874Z,934.9
2022-11-23T05:02:52.148Z,934.9
2022-11-23T05:03:58.208Z,934.9
2022-11-23T05:05:04.422Z,934.9
2022-11-23T05:06:10.567Z,934.9
2022-11-23T05:07:16.747Z,934.9
2022-11-23T05:08:22.916Z,934.9
2022-11-23T05:09:29.059Z,934.9
2022-11-23T05:10:35.343Z,934.9
2022-11-23T05:11:40.428Z,934.9
2022-11-23T05:12:46.688Z,934.9
2022-11-23T05:13:52.818Z,934.9
2022-11-23T05:14:59.055Z,934.9
2022-11-23T05:16:05.253Z,934.9
2022-11-23T05:17:11.351Z,934.9
2022-11-23T05:18:17.502Z,934.9
2022-11-23T05:19:23.659Z,934.9
2022-11-23T05:20:29.883Z,934.9
2022-11-23T05:21:36.113Z,934.9
2022-11-23T05:22:42.135Z,934.9
2022-11-23T05:23:48.304Z,934.9
2022-11-23T05:24:54.459Z,934.9
2022-11-23T05:25:59.730Z,934.9
2022-11-23T05:27:05.822Z,934.9
2022-11-23T05:28:12.037Z,934.9
2022-11-23T05:29:18.178Z,934.9
2022-11-23T05:30:24.529Z,934.9
2022-11-23T05:31:30.626Z,934.9
2022-11-23T05:32:36.812Z,934.9
2022-11-23T05:33:42.866Z,934.9
2022-11-23T05:34:49.091Z,934.9
2022-11-23T05:35:55.226Z,934.9
2022-11-23T05:37:01.408Z,934.9
2022-11-23T05:38:07.532Z,934.9
2022-11-23T05:39:13.698Z,934.9
2022-11-23T05:40:19.038Z,934.9
2022-11-23T05:41:25.145Z,934.9
2022-11-23T05:42:31.350Z,934.9
2022-11-23T05:43:37.562Z,934.9
2022-11-23T05:44:43.590Z,934.9
2022-11-23T05:45:49.745Z,934.9
2022-11-23T05:46:55.895Z,935
2022-11-23T05:48:02.074Z,935
2022-11-23T05:49:08.447Z,935
2022-11-23T05:50:14.527Z,935
2022-11-23T05:51:20.654Z,935
2022-11-23T05:53:33.016Z,935
2022-11-23T05:54:38.119Z,935
2022-11-23T05:55:44.313Z,935
2022-11-23T05:56:49.479Z,935
2022-11-23T05:57:55.668Z,935
2022-11-23T05:59:01.807Z,935
2022-11-23T06:00:08.034Z,935
2022-11-23T06:01:14.149Z,935.1
2022-11-23T06:02:20.318Z,935
2022-11-23T06:03:26.703Z,935
2022-11-23T06:04:32.823Z,935
2022-11-23T06:05:38.966Z,935
2022-11-23T06:06:45.020Z,935.1
2022-11-23T06:07:51.223Z,935
2022-11-23T06:08:57.444Z,935.1
2022-11-23T06:10:03.620Z,935.1
2022-11-23T06:11:08.835Z,935.1
2022-11-23T06:12:14.898Z,935.1
2022-11-23T06:13:21.160Z,935.1
2022-11-23T06:14:27.269Z,935
2022-11-23T06:15:33.370Z,935.1
2022-11-23T06:16:39.551Z,935
2022-11-23T06:17:45.720Z,935.1
2022-11-23T06:18:51.893Z,935.1
2022-11-23T06:19:58.108Z,935
2022-11-23T06:21:04.330Z,935.1
2022-11-23T06:22:10.404Z,935.1
2022-11-23T06:23:16.609Z,935.1
2022-11-23T06:24:22.722Z,935.1
2022-11-23T06:25:28.071Z,935.1
2022-11-23T06:26:34.101Z,935.1
2022-11-23T06:27:40.313Z,935.1
2022-11-23T06:28:46.454Z,935.1
2022-11-23T06:29:52.789Z,935.1
2022-11-23T06:30:58.888Z,935.1
2022-11-23T06:32:05.108Z,935
2022-11-23T06:33:11.219Z,935
2022-11-23T06:34:17.384Z,935
2022-11-23T06:35:23.598Z,935.1
2022-11-23T06:36:29.712Z,935
2022-11-23T06:37:35.800Z,935.1
2022-11-23T06:38:41.997Z,935.1
2022-11-23T06:39:47.303Z,935
2022-11-23T06:40:53.329Z,935
2022-11-23T06:41:59.600Z,935.1
2022-11-23T06:43:05.738Z,935.1
2022-11-23T06:44:11.881Z,935.1
2022-11-23T06:45:18.140Z,935.1
2022-11-23T06:46:24.325Z,935.1
2022-11-23T06:47:30.480Z,935.1
2022-11-23T06:48:36.613Z,935.1
2022-11-23T06:49:42.881Z,935.1
2022-11-23T06:50:48.845Z,935.1
2022-11-23T06:51:55.098Z,935.1
2022-11-23T06:53:01.264Z,935.1
2022-11-23T06:54:06.454Z,935.1
2022-11-23T06:55:12.692Z,935.1
2022-11-23T06:56:18.813Z,935.1
2022-11-23T06:57:24.894Z,935.2
2022-11-23T06:58:31.091Z,935.1
2022-11-23T06:59:37.368Z,935.2
2022-11-23T07:00:43.460Z,935.2
2022-11-23T07:01:49.643Z,935.2
2022-11-23T07:02:55.872Z,935.2
2022-11-23T07:04:01.976Z,935.2
2022-11-23T07:05:08.166Z,935.2
2022-11-23T07:06:14.401Z,935.2
2022-11-23T07:07:20.498Z,935.2
2022-11-23T07:08:25.605Z,935.2
2022-11-23T07:09:31.788Z,935.2
2022-11-23T07:10:37.959Z,935.2
2022-11-23T07:11:44.122Z,935.2
2022-11-23T07:12:50.293Z,935.2
2022-11-23T07:13:56.544Z,935.2
2022-11-23T07:15:02.684Z,935.2
2022-11-23T07:16:08.803Z,935.2
2022-11-23T07:17:14.969Z,935.2
2022-11-23T07:18:21.283Z,935.2
2022-11-23T07:19:27.394Z,935.2
2022-11-23T07:20:33.590Z,935.2
2022-11-23T07:21:39.709Z,935.2
2022-11-23T07:22:45.036Z,935.2
2022-11-23T07:23:51.036Z,935.2
2022-11-23T07:24:57.187Z,935.2
2022-11-23T07:26:03.372Z,935.2
2022-11-23T07:27:09.601Z,935.2
2022-11-23T07:28:15.767Z,935.2
2022-11-23T07:29:21.968Z,935.2
2022-11-23T07:30:28.099Z,935.3
2022-11-23T07:31:34.197Z,935.2
2022-11-23T07:32:40.404Z,935.3
2022-11-23T07:33:46.678Z,935.3
2022-11-23T07:34:52.779Z,935.3
2022-11-23T07:35:58.946Z,935.3
2022-11-23T07:37:04.154Z,935.2
2022-11-23T07:38:10.325Z,935.2
2022-11-23T07:39:16.418Z,935.2
2022-11-23T07:40:22.674Z,935.2
2022-11-23T07:41:28.785Z,935.2
2022-11-23T07:42:35.010Z,935.2
2022-11-23T07:43:41.091Z,935.2
2022-11-23T07:44:47.259Z,935.2
2022-11-23T07:45:53.489Z,935.2
2022-11-23T07:46:59.738Z,935.2
2022-11-23T07:48:05.853Z,935.2
2022-11-23T07:49:11.958Z,935.2
2022-11-23T07:50:18.221Z,935.2
2022-11-23T07:51:23.394Z,935.2
2022-11-23T07:52:29.558Z,935.1
2022-11-23T07:53:35.631Z,935.1
2022-11-23T07:54:41.793Z,935.1
2022-11-23T07:55:48.048Z,935.1
2022-11-23T07:56:54.158Z,935.1
2022-11-23T07:58:00.442Z,935.1
2022-11-23T07:59:06.633Z,935.2
2022-11-23T08:00:12.735Z,935.1
2022-11-23T08:01:19.018Z,935.1
2022-11-23T08:02:25.067Z,935.1
2022-11-23T08:03:31.332Z,935.1
2022-11-23T08:04:37.510Z,935.1
2022-11-23T08:05:43.739Z,935.1
2022-11-23T08:06:48.756Z,935.1
2022-11-23T08:07:54.861Z,935.1
2022-11-23T08:09:01.200Z,935.2
2022-11-23T08:10:07.382Z,935.1
2022-11-23T08:11:13.470Z,935.1
2022-11-23T08:12:19.754Z,935.1
2022-11-23T08:13:25.893Z,935.1
2022-11-23T08:14:32.098Z,935.1
2022-11-23T08:15:38.220Z,935.1
2022-11-23T08:16:44.223Z,935.1
2022-11-23T08:17:50.520Z,935.1
2022-11-23T08:18:56.707Z,935.1
2022-11-23T08:20:02.847Z,935.1
2022-11-23T08:21:08.037Z,935.1
2022-11-23T08:22:14.137Z,935.1
2022-11-23T08:23:20.395Z,935.1
2022-11-23T08:24:26.622Z,935.1
2022-11-23T08:25:32.732Z,935.1
2022-11-23T08:26:38.768Z,935.1
2022-11-23T08:27:44.950Z,935.2
2022-11-23T08:28:51.168Z,935.1
2022-11-23T08:29:57.288Z,935.1
2022-11-23T08:31:03.560Z,935.1
2022-11-23T08:32:09.693Z,935.1
2022-11-23T08:33:15.836Z,935.1
2022-11-23T08:34:21.950Z,935.1
2022-11-23T08:35:27.228Z,935.1
2022-11-23T08:36:33.508Z,935.1
2022-11-23T08:37:39.691Z,935.1
2022-11-23T08:38:45.794Z,935.2
2022-11-23T08:39:51.829Z,935.2
2022-11-23T08:40:58.025Z,935.2
2022-11-23T08:42:04.180Z,935.2
2022-11-23T08:43:10.467Z,935.2
2022-11-23T08:44:16.591Z,935.2
2022-11-23T08:45:22.820Z,935.2
2022-11-23T08:46:29.000Z,935.3
2022-11-23T08:47:35.145Z,935.3
2022-11-23T08:48:41.219Z,935.3
2022-11-23T08:49:46.477Z,935.3
2022-11-23T08:50:52.698Z,935.3
2022-11-23T08:51:58.858Z,935.3
2022-11-23T08:53:04.997Z,935.3
2022-11-23T08:54:11.213Z,935.3
2022-11-23T08:55:17.495Z,935.2
2022-11-23T08:56:23.391Z,935.2
2022-11-23T08:57:29.577Z,935.2
2022-11-23T08:58:35.904Z,935.2
2022-11-23T08:59:42.067Z,935.2
2022-11-23T09:00:48.141Z,935.2
2022-11-23T09:01:54.434Z,935.2
2022-11-23T09:03:00.567Z,935.2
2022-11-23T09:04:05.800Z,935.2
2022-11-23T09:05:11.766Z,935.2
2022-11-23T09:06:17.983Z,935.2
2022-11-23T09:07:24.119Z,935.2
2022-11-23T09:08:30.309Z,935.2
2022-11-23T09:09:36.596Z,935.2
2022-11-23T09:10:42.694Z,935.2
2022-11-23T09:11:48.891Z,935.2
2022-11-23T09:12:54.989Z,935.2
2022-11-23T09:14:01.254Z,935.2
2022-11-23T09:15:07.306Z,935.1
2022-11-23T09:16:13.534Z,935.1
2022-11-23T09:17:19.642Z,935.1
2022-11-23T09:18:24.819Z,935.1
2022-11-23T09:19:31.023Z,935.1
2022-11-23T09:20:37.383Z,935.1
2022-11-23T09:21:43.343Z,935.2
2022-11-23T09:22:49.511Z,935.2
2022-11-23T09:23:55.897Z,935.2
2022-11-23T09:25:02.058Z,935.2
2022-11-23T09:26:08.187Z,935.2
2022-11-23T09:27:14.350Z,935.2
2022-11-23T09:28:20.500Z,935.2
2022-11-23T09:29:26.693Z,935.2
2022-11-23T09:30:32.705Z,935.3
2022-11-23T09:31:38.980Z,935.3
2022-11-23T09:32:44.053Z,935.3
2022-11-23T09:33:50.235Z,935.3
2022-11-23T09:34:56.533Z,935.3
2022-11-23T09:36:02.705Z,935.2
2022-11-23T09:37:08.876Z,935.2
2022-11-23T09:38:14.039Z,935.2
2022-11-23T09:39:20.166Z,935.2
2022-11-23T09:40:26.339Z,935.2
2022-11-23T09:41:32.537Z,935.2
2022-11-23T09:42:38.721Z,935.2
2022-11-23T09:43:44.881Z,935.2
2022-11-23T09:44:51.053Z,935.2
2022-11-23T09:45:57.291Z,935.2
2022-11-23T09:47:03.453Z,935.2
2022-11-23T09:48:09.625Z,935.2
2022-11-23T09:49:15.771Z,935.2
2022-11-23T09:50:21.973Z,935.2
2022-11-23T09:51:28.043Z,935.2
2022-11-23T09:52:33.333Z,935.2
2022-11-23T09:53:39.516Z,935.2
2022-11-23T09:54:45.790Z,935.2
2022-11-23T09:55:51.831Z,935.2
2022-11-23T09:56:57.960Z,935.2
2022-11-23T09:58:04.035Z,935.2
2022-11-23T09:59:10.332Z,935.2
2022-11-23T10:00:16.495Z,935.1
2022-11-23T10:01:22.508Z,935.1
2022-11-23T10:02:28.683Z,935.1
2022-11-23T10:03:34.864Z,935.1
2022-11-23T10:04:41.232Z,935.1
2022-11-23T10:06:53.479Z,935.1
2022-11-23T10:07:58.621Z,935.1
2022-11-23T10:09:04.863Z,935.1
2022-11-23T10:10:11.015Z,935.1
2022-11-23T10:11:17.190Z,935
2022-11-23T10:12:23.349Z,935
2022-11-23T10:13:29.468Z,935
2022-11-23T10:14:35.737Z,935
2022-11-23T10:15:41.954Z,935
2022-11-23T10:16:47.966Z,935
2022-11-23T10:17:54.154Z,935
2022-11-23T10:19:00.290Z,935
2022-11-23T10:20:06.555Z,935
2022-11-23T10:21:12.607Z,935
2022-11-23T10:22:17.864Z,935
2022-11-23T10:23:24.074Z,935
2022-11-23T10:24:30.276Z,935
2022-11-23T10:25:36.396Z,935
2022-11-23T10:26:42.466Z,935
2022-11-23T10:27:48.703Z,935
2022-11-23T10:28:54.793Z,935
2022-11-23T10:30:00.987Z,935
2022-11-23T10:31:07.234Z,934.9
2022-11-23T10:32:13.375Z,934.9
2022-11-23T10:33:19.516Z,934.9
2022-11-23T10:34:25.772Z,934.9
2022-11-23T10:35:31.994Z,934.9
2022-11-23T10:36:37.162Z,934.9
2022-11-23T10:37:43.306Z,934.9
2022-11-23T10:38:49.439Z,934.9
2022-11-23T10:39:55.663Z,934.9
2022-11-23T10:41:01.689Z,935
2022-11-23T10:42:07.977Z,934.9
2022-11-23T10:43:14.201Z,934.9
2022-11-23T10:44:20.387Z,934.9
2022-11-23T10:45:26.486Z,934.9
2022-11-23T10:46:32.728Z,934.9
2022-11-23T10:47:38.804Z,934.9
2022-11-23T10:48:44.899Z,934.9
2022-11-23T10:49:51.153Z,934.9
2022-11-23T10:50:56.263Z,934.9
2022-11-23T10:52:02.473Z,934.9
2022-11-23T10:53:08.625Z,934.9
2022-11-23T10:54:14.731Z,934.9
2022-11-23T10:55:20.907Z,934.9
2022-11-23T10:56:27.115Z,934.8
2022-11-23T10:57:33.446Z,934.9
2022-11-23T10:58:39.532Z,934.8
2022-11-23T10:59:45.644Z,934.8
2022-11-23T11:01:21.808Z,934.8
2022-11-23T11:01:57.915Z,934.7
2022-11-23T11:03:04.087Z,934.8
2022-11-23T11:04:10.329Z,934.7
2022-11-23T11:05:15.544Z,934.7
2022-11-23T11:06:21.649Z,934.7
2022-11-23T11:07:27.798Z,934.7
2022-11-23T11:08:33.951Z,934.6
2022-11-23T11:09:40.304Z,934.6
2022-11-23T11:10:46.290Z,934.7
2022-11-23T11:11:52.562Z,934.6
2022-11-23T11:12:58.636Z,934.6
2022-11-23T11:14:04.871Z,934.6
2022-11-23T11:15:11.004Z,934.6
2022-11-23T11:16:17.146Z,934.6
2022-11-23T11:17:23.417Z,934.6
2022-11-23T11:18:29.493Z,934.5
2022-11-23T11:19:34.776Z,934.6
2022-11-23T11:20:40.936Z,934.6
2022-11-23T11:21:47.006Z,934.6
2022-11-23T11:22:53.201Z,934.5
2022-11-23T11:23:59.403Z,934.5
2022-11-23T11:25:05.584Z,934.5
2022-11-23T11:26:11.688Z,934.5
2022-11-23T11:27:17.905Z,934.4
2022-11-23T11:28:24.019Z,934.4
2022-11-23T11:29:30.191Z,934.4
2022-11-23T11:30:36.382Z,934.4
2022-11-23T11:31:42.575Z,934.4
2022-11-23T11:32:48.692Z,934.4
2022-11-23T11:33:53.887Z,934.4
2022-11-23T11:35:00.218Z,934.4
2022-11-23T11:36:06.300Z,934.4
2022-11-23T11:37:12.472Z,934.4
2022-11-23T11:38:18.685Z,934.4
2022-11-23T11:39:24.737Z,934.4
2022-11-23T11:40:30.916Z,934.3
2022-11-23T11:41:37.182Z,934.4
2022-11-23T11:42:43.382Z,934.4
2022-11-23T11:43:49.478Z,934.4
2022-11-23T11:44:55.656Z,934.3
2022-11-23T11:46:01.884Z,934.4
2022-11-23T11:47:07.979Z,934.3
2022-11-23T11:48:13.113Z,934.4
2022-11-23T11:49:19.323Z,934.4
2022-11-23T11:50:25.467Z,934.4
2022-11-23T11:51:31.641Z,934.4
2022-11-23T11:52:37.892Z,934.3
2022-11-23T11:53:43.995Z,934.4
2022-11-23T11:54:50.342Z,934.4
2022-11-23T11:55:56.343Z,934.4
2022-11-23T11:57:02.492Z,934.3
2022-11-23T11:58:08.773Z,934.3
2022-11-23T11:59:15.354Z,934.3
2022-11-23T12:00:21.064Z,934.3
2022-11-23T12:01:27.148Z,934.3
2022-11-23T12:02:32.332Z,934.3
2022-11-23T12:03:38.507Z,934.3
2022-11-23T12:04:44.718Z,934.3
2022-11-23T12:05:50.824Z,934.3
2022-11-23T12:06:57.012Z,934.3
2022-11-23T12:08:03.229Z,934.3
2022-11-23T12:09:09.336Z,934.3
2022-11-23T12:10:15.506Z,934.3
2022-11-23T12:11:21.882Z,934.3
2022-11-23T12:12:27.918Z,934.3
2022-11-23T12:13:34.350Z,934.3
2022-11-23T12:14:40.194Z,934.3
2022-11-23T12:15:46.367Z,934.4
2022-11-23T12:16:51.756Z,934.3
2022-11-23T12:17:57.720Z,934.2
2022-11-23T12:19:03.888Z,934.3
2022-11-23T12:20:10.257Z,934.3
2022-11-23T12:21:16.393Z,934.3
2022-11-23T12:22:22.621Z,934.3
2022-11-23T12:23:28.741Z,934.3
2022-11-23T12:24:34.921Z,934.3
2022-11-23T12:25:41.105Z,934.3
2022-11-23T12:26:47.264Z,934.3
2022-11-23T12:27:53.343Z,934.2
2022-11-23T12:28:59.423Z,934.2
2022-11-23T12:30:05.813Z,934.2
2022-11-23T12:31:10.767Z,934.2
2022-11-23T12:32:17.110Z,934.2
2022-11-23T12:33:23.261Z,934.2
2022-11-23T12:34:29.267Z,934.2
2022-11-23T12:35:35.558Z,934.1
2022-11-23T12:36:41.639Z,934.1
2022-11-23T12:37:47.905Z,934.1
2022-11-23T12:38:53.991Z,934.2
2022-11-23T12:40:00.189Z,934.2
2022-11-23T12:41:06.367Z,934.1
2022-11-23T12:42:12.465Z,934.1
2022-11-23T12:43:18.650Z,934.1
2022-11-23T12:44:24.988Z,934
2022-11-23T12:45:29.973Z,934.1
2022-11-23T12:46:36.153Z,934
2022-11-23T12:47:42.330Z,934
2022-11-23T12:48:48.529Z,934
2022-11-23T12:49:54.664Z,934
2022-11-23T12:51:00.967Z,933.9
2022-11-23T12:52:07.162Z,933.9
2022-11-23T12:53:13.316Z,933.9
2022-11-23T12:54:19.333Z,933.9
2022-11-23T12:55:25.673Z,933.8
2022-11-23T12:56:31.821Z,933.9
2022-11-23T12:57:37.843Z,933.9
2022-11-23T12:58:44.171Z,933.9
2022-11-23T13:00:55.483Z,933.9
2022-11-23T13:02:01.603Z,933.9
2022-11-23T13:03:07.724Z,933.9
2022-11-23T13:04:13.945Z,933.9
2022-11-23T13:05:20.072Z,933.9
2022-11-23T13:06:26.222Z,933.9
2022-11-23T13:07:32.662Z,933.9
2022-11-23T13:08:38.611Z,933.8
2022-11-23T13:09:44.721Z,933.8
2022-11-23T13:10:51.094Z,933.8
2022-11-23T13:11:57.295Z,933.8
2022-11-23T13:13:03.420Z,933.8
2022-11-23T13:14:08.540Z,933.7
2022-11-23T13:15:14.783Z,933.7
2022-11-23T13:16:20.934Z,933.7
2022-11-23T13:17:27.114Z,933.7
2022-11-23T13:18:33.261Z,933.7
2022-11-23T13:19:38.482Z,933.7
2022-11-23T13:20:44.626Z,933.7
2022-11-23T13:21:50.810Z,933.7
2022-11-23T13:22:57.006Z,933.7
2022-11-23T13:24:03.103Z,933.7
2022-11-23T13:25:09.312Z,933.7
2022-11-23T13:26:15.453Z,933.7
2022-11-23T13:27:21.683Z,933.7
2022-11-23T13:28:27.830Z,933.7
2022-11-23T13:29:33.981Z,933.7
2022-11-23T13:30:40.206Z,933.7
2022-11-23T13:31:46.158Z,933.7
2022-11-23T13:32:52.444Z,933.6
2022-11-23T13:33:57.701Z,933.6
2022-11-23T13:35:03.834Z,933.6
2022-11-23T13:36:09.888Z,933.5
2022-11-23T13:37:16.092Z,933.5
2022-11-23T13:38:22.210Z,933.5
2022-11-23T13:39:28.501Z,933.4
2022-11-23T13:40:34.741Z,933.4
2022-11-23T13:41:40.908Z,933.4
2022-11-23T13:42:47.069Z,933.4
2022-11-23T13:43:53.053Z,933.4
2022-11-23T13:44:59.211Z,933.5
2022-11-23T13:46:05.561Z,933.5
2022-11-23T13:47:11.554Z,933.5
2022-11-23T13:48:16.866Z,933.4
2022-11-23T13:49:23.072Z,933.4
2022-11-23T13:50:29.287Z,933.5
2022-11-23T13:51:35.439Z,933.4
2022-11-23T13:52:41.500Z,933.4
2022-11-23T13:53:47.771Z,933.4
2022-11-23T13:54:53.926Z,933.4
2022-11-23T13:56:00.130Z,933.4
2022-11-23T13:57:06.201Z,933.4
2022-11-23T13:58:12.377Z,933.3
2022-11-23T13:59:18.627Z,933.3
2022-11-23T14:00:24.705Z,933.3
2022-11-23T14:01:30.949Z,933.3
2022-11-23T14:02:36.106Z,933.3
2022-11-23T14:03:42.335Z,933.2
2022-11-23T14:04:48.490Z,933.2
2022-11-23T14:05:54.768Z,933.2
2022-11-23T14:07:00.838Z,933.2
2022-11-23T14:08:07.022Z,933.3
2022-11-23T14:09:13.064Z,933.3
2022-11-23T14:10:19.150Z,933.3
2022-11-23T14:11:25.484Z,933.3
2022-11-23T14:12:31.517Z,933.2
2022-11-23T14:13:37.773Z,933.2
2022-11-23T14:14:43.936Z,933.2
2022-11-23T14:15:50.128Z,933.2
2022-11-23T14:16:55.204Z,933.2
2022-11-23T14:18:01.535Z,933.2
2022-11-23T14:19:07.527Z,933.2
2022-11-23T14:20:13.687Z,933.3
2022-11-23T14:21:20.086Z,933.3